Time;durP1;ratioP1;P1;durP2;ratioP2;P2;SDS_P1;SDS_P2;PMS_P1;PMS_P2;Temp;Humidity;BMP_temperature;BMP_pressure;BME280_temperature;BME280_humidity;BME280_pressure;Samples;Min_cycle;Max_cycle;Signal;HPM_P1;HPM_P2
2023/06/16 00:01:31;;;;;;;9.70;3.25;;;18.20;83.50;;;-144.05;39.79;56776.63;5070938;28;20025;-79
2023/06/16 00:04:03;;;;;;;4.47;2.63;;;18.10;83.50;;;-144.05;39.99;56780.88;5053439;28;20090;-80
2023/06/16 00:06:30;;;;;;;4.82;3.40;;;18.00;84.40;;;-144.05;40.45;56783.00;5053323;28;20047;-80
2023/06/16 00:09:00;;;;;;;4.82;3.10;;;17.90;85.30;;;-144.05;40.13;56795.75;5053016;28;20423;-80
2023/06/16 00:11:27;;;;;;;5.50;3.33;;;17.90;84.90;;;-144.05;40.21;56772.38;5071008;28;20021;-80
2023/06/16 00:13:55;;;;;;;3.33;2.83;;;17.80;85.50;;;-144.05;40.53;56780.88;5070918;28;20021;-79
2023/06/16 00:16:23;;;;;;;6.18;3.00;;;17.80;86.70;;;-144.05;40.90;56763.88;5070993;28;20070;-78
2023/06/16 00:18:53;;;;;;;6.22;3.00;;;17.70;87.20;;;-144.05;41.02;56793.63;5070939;28;20028;-80
2023/06/16 00:21:27;;;;;;;5.55;3.17;;;17.60;87.80;;;-144.05;41.15;56776.63;5052537;28;20489;-79
2023/06/16 00:23:54;;;;;;;4.82;3.05;;;17.50;88.60;;;-144.05;41.50;56772.38;5073753;28;20032;-79
2023/06/16 00:26:22;;;;;;;6.00;2.72;;;17.30;89.90;;;-144.05;42.01;56785.13;5056656;28;20020;-80
2023/06/16 00:28:48;;;;;;;5.88;3.50;;;17.30;90.60;;;-144.05;42.19;56759.63;5074748;28;20032;-81
2023/06/16 00:31:15;;;;;;;8.30;3.40;;;17.20;91.50;;;-144.05;42.27;56795.75;5074426;28;20024;-81
2023/06/16 00:33:41;;;;;;;5.75;3.00;;;17.10;91.70;;;-144.05;42.68;56776.63;5056670;28;20025;-81
2023/06/16 00:36:07;;;;;;;5.97;2.97;;;17.00;92.40;;;-144.05;43.09;56797.88;5056335;28;20121;-80
2023/06/16 00:38:33;;;;;;;3.83;3.20;;;16.90;93.40;;;-144.05;43.25;56770.25;5056139;28;20033;-80
2023/06/16 00:41:00;;;;;;;7.75;3.28;;;16.90;94.50;;;-144.05;43.72;56759.63;5074205;28;20035;-79
2023/06/16 00:43:26;;;;;;;7.05;3.63;;;16.70;96.00;;;-144.05;44.11;56778.75;5056119;28;20450;-79
2023/06/16 00:45:53;;;;;;;5.47;3.08;;;16.60;98.00;;;-144.05;44.58;56780.88;5056275;28;20043;-79
2023/06/16 00:48:20;;;;;;;4.75;3.00;;;16.60;99.70;;;-144.05;44.76;56778.75;5074144;28;20028;-80
2023/06/16 00:50:47;;;;;;;4.85;3.15;;;16.50;99.90;;;-144.05;45.16;56772.38;5057964;28;20020;-81
2023/06/16 00:53:13;;;;;;;3.65;2.72;;;16.50;99.90;;;-144.05;45.29;56797.88;5055790;28;20493;-80
2023/06/16 00:55:41;;;;;;;4.00;2.78;;;16.40;99.90;;;-144.05;45.83;56793.63;5055738;28;20123;-79
2023/06/16 00:58:07;;;;;;;6.78;2.65;;;16.30;99.90;;;-144.05;46.49;56776.63;5055654;28;20044;-81
2023/06/16 01:00:36;;;;;;;4.10;3.20;;;16.20;99.90;;;-144.05;46.95;56768.13;5055653;28;20035;-81
2023/06/16 01:03:04;;;;;;;4.28;2.80;;;16.10;99.90;;;-144.05;47.86;56763.88;5055891;28;20032;-78
2023/06/16 01:05:33;;;;;;;6.55;2.90;;;15.90;99.90;;;-144.05;48.44;56774.50;5055884;28;20405;-79
2023/06/16 01:08:19;;;;;;;5.30;2.80;;;15.80;99.90;;;-144.05;48.61;56772.38;5055321;28;20410;-80
2023/06/16 01:11:15;;;;;;;6.00;3.00;;;15.80;99.90;;;-144.05;49.96;56778.75;5055581;28;20028;-79
2023/06/16 01:14:12;;;;;;;5.78;3.28;;;15.60;99.90;;;-144.05;50.67;56772.38;5055379;28;20033;-79
2023/06/16 01:16:42;;;;;;;6.70;3.20;;;15.40;99.90;;;-144.05;51.05;56763.88;5055689;28;20036;-80
2023/06/16 01:19:22;;;;;;;6.40;3.10;;;15.30;99.90;;;-144.05;50.88;56783.00;5073459;28;20089;-79
2023/06/16 01:22:39;;;;;;;5.22;3.33;;;15.40;99.90;;;-144.05;50.88;56776.63;5073626;28;20028;-81
2023/06/16 01:25:14;;;;;;;5.43;3.42;;;15.30;99.90;;;-144.05;51.42;56768.13;5050602;28;20029;-80
2023/06/16 01:27:47;;;;;;;5.88;3.60;;;15.20;99.90;;;-144.05;51.77;56776.63;5073626;28;20047;-79
2023/06/16 01:30:17;;;;;;;7.00;3.60;;;15.20;99.90;;;-144.05;51.23;56759.63;5055513;28;20088;-81
2023/06/16 01:32:53;;;;;;;4.80;3.25;;;15.20;99.90;;;-144.05;51.12;56785.13;5074359;28;20036;-81
2023/06/16 01:35:22;;;;;;;7.38;3.53;;;15.20;99.90;;;-144.05;51.22;56776.63;5058964;28;20066;-82
2023/06/16 01:37:53;;;;;;;3.65;2.88;;;15.20;99.90;;;-144.05;51.28;56789.38;5077499;28;20134;-78
2023/06/16 01:40:20;;;;;;;6.38;3.47;;;15.30;99.90;;;-144.05;50.95;56768.13;5077240;28;20032;-81
2023/06/16 01:42:52;;;;;;;5.50;3.35;;;15.30;99.90;;;-144.05;50.47;56755.38;5072877;28;20024;-80
2023/06/16 01:45:20;;;;;;;6.20;3.53;;;15.40;99.90;;;-144.05;49.97;56776.63;5054818;28;20387;-79
2023/06/16 01:47:47;;;;;;;5.85;3.38;;;15.50;99.90;;;-144.05;49.62;56772.38;5054945;28;20039;-80
2023/06/16 01:50:14;;;;;;;6.13;3.65;;;15.50;99.90;;;-144.05;49.54;56759.63;5054584;28;20029;-81
2023/06/16 01:52:40;;;;;;;5.25;3.13;;;15.50;99.90;;;-144.05;49.41;56780.88;5054687;28;20033;-81
2023/06/16 01:55:07;;;;;;;5.85;3.35;;;15.50;99.90;;;-144.05;49.52;56783.00;5072646;28;20032;-78
2023/06/16 01:57:35;;;;;;;6.50;3.30;;;15.40;99.90;;;-144.05;49.36;56757.50;5072299;28;20393;-80
2023/06/16 02:00:42;;;;;;;6.90;3.45;;;15.50;99.90;;;-144.05;49.55;56785.13;5054302;28;20393;-80
2023/06/16 02:03:23;;;;;;;8.75;3.60;;;15.40;99.90;;;-144.05;49.58;56768.13;5072427;28;20498;-79
2023/06/16 02:05:53;;;;;;;6.40;4.07;;;15.40;99.90;;;-144.05;49.87;56778.75;5072395;28;20082;-81
2023/06/16 02:08:27;;;;;;;8.45;3.30;;;15.30;99.90;;;-144.05;50.31;56810.59;5054468;28;20028;-79
2023/06/16 02:10:55;;;;;;;7.38;3.53;;;15.30;99.90;;;-144.05;50.77;56791.50;5054431;28;20032;-80
2023/06/16 02:13:21;;;;;;;4.93;3.42;;;15.10;99.90;;;-144.05;51.34;56787.25;5072752;28;20028;-79
2023/06/16 02:15:47;;;;;;;5.22;3.67;;;15.00;99.90;;;-144.05;52.67;56785.13;5072267;28;20033;-79
2023/06/16 02:18:13;;;;;;;6.10;4.15;;;14.80;99.90;;;-144.05;54.85;56778.75;5053906;28;20043;-78
2023/06/16 02:20:39;;;;;;;4.55;3.45;;;14.60;99.90;;;-144.05;55.96;56774.50;5054156;28;20035;-79
2023/06/16 02:23:05;;;;;;;6.60;4.22;;;14.50;99.90;;;-144.05;56.21;56757.50;5054244;28;20025;-80
2023/06/16 02:25:31;;;;;;;4.75;3.40;;;14.30;99.90;;;-144.05;56.52;56770.25;5055164;28;20522;-80
2023/06/16 02:27:57;;;;;;;6.32;3.92;;;14.10;99.90;;;-144.05;57.14;56770.25;5071912;28;20608;-80
2023/06/16 02:30:23;;;;;;;7.95;4.20;;;14.00;99.90;;;-144.05;57.19;56770.25;5071331;28;20028;-80
2023/06/16 02:32:49;;;;;;;6.82;4.07;;;13.90;99.90;;;-144.05;57.75;56783.00;5074702;28;20348;-80
2023/06/16 02:35:15;;;;;;;7.60;4.38;;;13.80;99.90;;;-144.05;58.89;56763.88;5057673;28;20032;-79
2023/06/16 02:37:42;;;;;;;6.38;4.30;;;13.80;99.90;;;-144.05;59.23;56780.88;5072075;28;20044;-79
2023/06/16 02:40:09;;;;;;;8.13;4.38;;;13.80;99.90;;;-144.05;59.59;56806.34;5053762;28;20429;-79
2023/06/16 02:42:35;;;;;;;7.57;4.68;;;13.80;99.90;;;-144.05;59.77;56755.38;5071556;28;20056;-79
2023/06/16 02:45:01;;;;;;;5.32;3.80;;;13.80;99.90;;;-144.05;59.79;56744.75;5053440;28;20056;-78
2023/06/16 02:47:27;;;;;;;8.80;3.92;;;13.80;99.90;;;-144.05;59.53;56770.25;5070092;28;20383;-79
2023/06/16 02:49:54;;;;;;;4.55;3.92;;;13.80;99.90;;;-144.05;59.92;56768.13;5053650;28;20039;-80
2023/06/16 02:52:21;;;;;;;5.00;4.13;;;13.80;99.90;;;-144.05;60.04;56772.38;5053743;28;20109;-81
2023/06/16 02:54:47;;;;;;;6.38;4.53;;;13.80;99.90;;;-144.05;60.13;56785.13;5053547;28;20032;-79
2023/06/16 02:57:13;;;;;;;6.20;4.22;;;13.80;99.90;;;-144.05;59.80;56763.88;5070327;28;20410;-79
2023/06/16 02:59:38;;;;;;;5.53;4.00;;;13.70;99.90;;;-144.05;60.23;56778.75;5071621;28;20035;-81
2023/06/16 03:02:05;;;;;;;5.25;4.15;;;13.70;99.90;;;-144.05;60.21;56768.13;5053850;28;20070;-81
2023/06/16 03:04:31;;;;;;;5.00;4.22;;;13.60;99.90;;;-144.05;60.63;56785.13;5070304;28;20423;-79
2023/06/16 03:06:57;;;;;;;7.95;4.45;;;13.60;99.90;;;-144.05;60.89;56783.00;5071682;28;20110;-77
2023/06/16 03:09:25;;;;;;;5.65;3.85;;;13.50;99.90;;;-144.05;60.98;56780.88;5070174;28;20043;-80
2023/06/16 03:11:51;;;;;;;5.93;4.05;;;13.50;99.90;;;-144.05;61.02;56770.25;5053513;28;20024;-80
2023/06/16 03:14:17;;;;;;;5.00;3.70;;;13.40;99.90;;;-144.05;61.25;56785.13;5071553;28;20482;-82
2023/06/16 03:16:43;;;;;;;5.03;3.85;;;13.40;99.90;;;-144.05;61.31;56761.75;5053652;28;20025;-79
2023/06/16 03:19:08;;;;;;;7.25;4.75;;;13.30;99.90;;;-144.05;61.73;56785.13;5053768;28;20066;-79
2023/06/16 03:21:34;;;;;;;15.80;4.88;;;13.30;99.90;;;-144.05;61.70;56783.00;5054039;28;20439;-79
2023/06/16 03:24:02;;;;;;;11.82;5.22;;;13.30;99.90;;;-144.05;61.79;56761.75;5054514;28;20024;-81
2023/06/16 03:26:28;;;;;;;19.73;4.93;;;13.30;99.90;;;-144.05;61.71;56761.75;5079712;28;20035;-79
2023/06/16 03:28:53;;;;;;;12.00;4.63;;;13.20;99.90;;;-144.05;61.76;56787.25;5074567;28;20029;-79
2023/06/16 03:31:19;;;;;;;13.55;4.30;;;13.20;99.90;;;-144.05;61.93;56785.13;5053421;28;20431;-79
2023/06/16 03:33:45;;;;;;;10.93;4.63;;;13.20;99.90;;;-144.05;61.80;56785.13;5053412;28;20029;-79
2023/06/16 03:36:11;;;;;;;11.05;4.55;;;13.20;99.90;;;-144.05;62.20;56789.38;5053139;28;20078;-78
2023/06/16 03:38:37;;;;;;;10.48;4.45;;;13.10;99.90;;;-144.05;62.49;56787.25;5069604;28;20476;-79
2023/06/16 03:41:03;;;;;;;9.10;4.80;;;13.10;99.90;;;-144.05;62.64;56778.75;5069811;28;20124;-79
2023/06/16 03:43:29;;;;;;;7.22;4.07;;;13.10;99.90;;;-144.05;63.02;56785.13;5069759;28;20025;-78
2023/06/16 03:45:55;;;;;;;10.23;4.40;;;13.10;99.90;;;-144.05;63.18;56770.25;5053111;28;20032;-81
2023/06/16 03:48:21;;;;;;;5.80;4.20;;;13.10;99.90;;;-144.05;63.34;56780.88;5053216;28;20107;-80
2023/06/16 03:50:47;;;;;;;7.38;4.07;;;13.10;99.90;;;-144.05;63.50;56791.50;5070978;28;20128;-79
2023/06/16 03:53:13;;;;;;;10.00;5.00;;;13.10;99.90;;;-144.05;63.62;56763.88;5071348;28;20086;-81
2023/06/16 03:55:39;;;;;;;8.60;5.13;;;13.10;99.90;;;-144.05;63.80;56791.50;5071294;28;20162;-80
2023/06/16 03:58:07;;;;;;;6.32;4.30;;;13.10;99.90;;;-144.05;63.57;56774.50;5071726;28;20031;-79
2023/06/16 04:00:33;;;;;;;6.15;4.22;;;13.10;99.90;;;-144.05;63.60;56755.38;5074968;28;20024;-79
2023/06/16 04:02:59;;;;;;;7.50;5.05;;;13.20;99.90;;;-144.05;63.48;56755.38;5073950;28;20493;-79
2023/06/16 04:05:25;;;;;;;8.07;4.95;;;13.20;99.90;;;-144.05;63.65;56755.38;5057017;28;20063;-79
2023/06/16 04:07:51;;;;;;;7.95;4.60;;;13.20;99.90;;;-144.05;63.91;56755.38;5056912;28;20024;-79
2023/06/16 04:10:17;;;;;;;12.07;5.57;;;13.30;99.90;;;-144.05;64.09;56763.88;5056547;28;20158;-81
2023/06/16 04:12:43;;;;;;;8.50;5.00;;;13.30;99.90;;;-144.05;64.10;56759.63;5074709;28;20056;-80
2023/06/16 04:15:09;;;;;;;8.40;5.40;;;13.40;99.90;;;-144.05;64.26;56761.75;5074606;28;20024;-81
2023/06/16 04:17:35;;;;;;;11.25;5.20;;;13.40;99.90;;;-144.05;63.87;56757.50;5056547;28;20040;-82
2023/06/16 04:20:01;;;;;;;11.50;5.28;;;13.50;99.90;;;-144.05;63.90;56759.63;5056457;28;20039;-79
2023/06/16 04:22:27;;;;;;;8.65;5.18;;;13.60;99.90;;;-144.05;63.28;56785.13;5057231;28;20025;-82
2023/06/16 04:24:53;;;;;;;11.82;4.95;;;13.70;99.90;;;-144.05;63.08;56770.25;5074642;28;20055;-83
2023/06/16 04:27:22;;;;;;;7.70;4.88;;;13.80;99.90;;;-144.05;62.58;56768.13;5074446;28;20085;-83
2023/06/16 04:29:50;;;;;;;10.55;4.90;;;13.90;99.90;;;-144.05;62.18;56759.63;5075324;28;20024;-79
2023/06/16 04:32:16;;;;;;;8.65;4.30;;;14.10;99.90;;;-144.05;61.38;56761.75;5058809;28;20097;-81
2023/06/16 04:34:42;;;;;;;7.45;4.38;;;14.20;99.90;;;-144.05;60.84;56757.50;5075004;28;20040;-83
2023/06/16 04:37:11;;;;;;;7.22;4.32;;;14.40;99.90;;;-144.05;60.14;56740.50;5057917;28;20540;-81
2023/06/16 04:39:37;;;;;;;6.88;4.60;;;14.60;99.90;;;-144.05;59.57;56768.13;5058507;28;20028;-82
2023/06/16 04:42:06;;;;;;;9.63;4.75;;;14.80;99.90;;;-144.05;58.75;56751.13;5058569;28;20081;-80
2023/06/16 04:44:32;;;;;;;5.88;4.30;;;15.10;99.90;;;-144.05;58.01;56772.38;5058490;28;20036;-83
2023/06/16 04:46:58;;;;;;;9.18;5.00;;;15.30;99.90;;;-144.05;57.34;56761.75;5077570;28;20043;-82
2023/06/16 04:49:23;;;;;;;7.18;5.10;;;15.50;99.90;;;-144.05;56.57;56761.75;5075172;28;20025;-81
2023/06/16 04:51:49;;;;;;;6.38;4.78;;;15.80;99.90;;;-144.05;55.82;56783.00;5058325;28;20039;-82
2023/06/16 04:54:18;;;;;;;7.68;4.28;;;16.00;99.90;;;-144.05;55.13;56770.25;5075552;28;20033;-82
2023/06/16 04:56:44;;;;;;;12.45;4.93;;;16.20;99.90;;;-144.05;54.40;56774.50;5074953;28;20091;-80
2023/06/16 04:59:11;;;;;;;9.95;5.30;;;16.50;99.90;;;-144.05;53.62;56776.63;5076031;28;20419;-83
2023/06/16 05:01:37;;;;;;;8.50;5.15;;;16.70;99.90;;;-144.05;53.08;56780.88;5076595;28;20082;-83
2023/06/16 05:04:03;;;;;;;9.82;5.05;;;17.00;99.90;;;-144.05;52.63;56768.13;5057808;28;20143;-85
2023/06/16 05:06:33;;;;;;;14.02;4.72;;;17.20;99.90;;;-144.05;52.05;56785.13;5057518;28;20115;-81
2023/06/16 05:08:59;;;;;;;10.00;4.57;;;17.40;99.90;;;-144.05;51.64;56774.50;5057081;28;20463;-81
2023/06/16 05:11:25;;;;;;;12.45;5.13;;;17.60;99.90;;;-144.05;51.06;56768.13;5073686;28;20028;-80
2023/06/16 05:13:51;;;;;;;9.90;5.10;;;17.80;99.90;;;-144.05;50.21;56780.88;5057853;28;20097;-83
2023/06/16 05:16:17;;;;;;;11.27;5.47;;;18.10;99.90;;;-144.05;49.58;56799.97;5075670;28;20060;-84
2023/06/16 05:18:43;;;;;;;10.32;4.97;;;18.40;99.90;;;-144.05;49.21;56810.59;5098254;28;20146;-80
2023/06/16 05:21:09;;;;;;;11.80;5.00;;;18.50;99.90;;;-144.05;48.58;56789.38;5077441;28;20127;-84
2023/06/16 05:23:36;;;;;;;8.30;4.55;;;18.70;99.90;;;-144.05;48.25;56789.38;5074694;28;20386;-82
2023/06/16 05:26:03;;;;;;;9.75;4.85;;;18.90;99.90;;;-144.05;48.02;56783.00;5075728;28;20134;-80
2023/06/16 05:28:29;;;;;;;9.00;5.10;;;19.10;99.90;;;-144.05;47.15;56806.34;5057512;28;20024;-82
2023/06/16 05:30:55;;;;;;;9.10;4.85;;;19.30;99.90;;;-144.05;46.30;56804.22;5057757;28;20086;-79
2023/06/16 05:33:21;;;;;;;8.48;5.00;;;19.60;99.90;;;-144.05;42.20;56808.47;5058019;28;20482;-82
2023/06/16 05:35:46;;;;;;;9.40;5.38;;;19.70;99.90;;;-144.05;40.87;56814.84;5074617;28;20090;-83
2023/06/16 05:38:12;;;;;;;7.28;4.60;;;19.90;99.90;;;-144.05;38.36;56797.88;5073883;28;20035;-81
2023/06/16 05:40:38;;;;;;;8.40;4.40;;;20.00;99.90;;;-144.05;37.46;56806.34;5057303;28;20021;-80
2023/06/16 05:43:04;;;;;;;6.50;3.95;;;20.10;99.90;;;-144.05;37.79;56806.34;5075136;28;20446;-83
2023/06/16 05:45:30;;;;;;;8.13;4.60;;;20.40;99.90;;;-144.05;37.91;56808.47;5057295;28;20033;-84
2023/06/16 05:47:56;;;;;;;8.90;4.63;;;20.60;99.90;;;-144.05;37.10;56804.22;5057255;28;20482;-84
2023/06/16 05:50:21;;;;;;;6.53;4.20;;;20.70;99.40;;;-144.05;37.22;56804.22;5057817;28;20518;-83
2023/06/16 05:52:47;;;;;;;9.52;4.72;;;20.90;99.20;;;-144.05;35.88;56823.34;5057842;28;20166;-85
2023/06/16 05:55:13;;;;;;;8.77;4.70;;;21.00;96.10;;;-144.05;35.14;56838.22;5075733;28;20035;-85
2023/06/16 05:57:40;;;;;;;9.75;4.68;;;21.20;94.60;;;-144.05;34.97;56810.59;5058637;28;20109;-86
2023/06/16 06:00:07;;;;;;;6.07;4.43;;;21.30;93.90;;;-144.05;34.18;56821.22;5077139;28;20029;-86
2023/06/16 06:02:33;;;;;;;7.68;4.10;;;21.40;92.40;;;-144.05;34.41;56842.47;5059171;28;20417;-81
2023/06/16 06:04:59;;;;;;;9.30;5.20;;;21.70;92.10;;;-144.05;34.64;56846.72;5074203;28;20017;-82
2023/06/16 06:07:25;;;;;;;9.85;6.85;;;21.80;93.00;;;-144.05;33.72;56833.97;5074503;28;20497;-84
2023/06/16 06:09:50;;;;;;;10.10;4.70;;;21.80;91.50;;;-144.05;34.43;56853.09;5056578;28;20629;-83
2023/06/16 06:12:17;;;;;;;8.73;4.47;;;21.80;91.60;;;-144.05;34.57;56831.84;5057222;28;20109;-83
2023/06/16 06:14:43;;;;;;;7.10;4.45;;;22.00;91.30;;;-144.05;34.00;56846.72;5057539;28;20438;-82
2023/06/16 06:17:09;;;;;;;6.90;3.90;;;22.20;91.40;;;-144.05;33.50;56848.84;5056559;28;20068;-82
2023/06/16 06:19:35;;;;;;;6.60;4.18;;;22.40;90.10;;;-144.05;32.72;56840.34;5074069;28;20639;-83
2023/06/16 06:22:00;;;;;;;8.13;4.00;;;22.50;87.30;;;-144.05;32.68;56861.56;5073435;28;20115;-82
2023/06/16 06:24:26;;;;;;;9.27;5.05;;;22.80;87.70;;;-144.05;31.76;56872.19;5074465;28;20066;-80
2023/06/16 06:26:52;;;;;;;7.93;4.60;;;23.00;82.50;;;-144.05;31.74;56874.31;5056958;28;20037;-83
2023/06/16 06:29:18;;;;;;;7.18;4.47;;;23.30;83.10;;;-144.05;32.64;56870.06;5074870;28;20028;-80
2023/06/16 06:31:44;;;;;;;5.22;4.05;;;23.50;85.70;;;-144.05;32.66;56878.56;5074472;28;20034;-83
2023/06/16 06:34:10;;;;;;;6.50;4.25;;;23.60;83.80;;;-144.05;31.36;56893.44;5056439;28;20029;-81
2023/06/16 06:36:42;;;;;;;10.68;4.63;;;23.70;80.10;;;-144.05;31.48;56912.56;5073676;28;20058;-83
2023/06/16 06:39:08;;;;;;;5.70;3.63;;;23.70;80.90;;;-144.05;31.34;56906.19;5055282;28;20552;-83
2023/06/16 06:41:34;;;;;;;6.18;4.05;;;24.00;81.00;;;-144.05;30.22;56889.19;5072906;28;20103;-82
2023/06/16 06:44:00;;;;;;;6.88;3.90;;;24.00;75.70;;;-144.05;30.56;56878.56;5055451;28;20024;-81
2023/06/16 06:46:26;;;;;;;12.68;4.35;;;24.20;78.80;;;-144.05;30.72;56914.69;5071433;28;20028;-83
2023/06/16 06:48:52;;;;;;;10.75;3.95;;;24.50;77.20;;;-144.05;30.31;56893.44;5072980;28;20024;-81
2023/06/16 06:51:18;;;;;;;10.65;3.55;;;24.60;75.20;;;-144.05;29.72;56927.41;5073102;28;20048;-84
2023/06/16 06:53:44;;;;;;;15.60;4.43;;;24.80;73.20;;;-144.05;29.81;56912.56;5071771;28;20044;-81
2023/06/16 06:56:10;;;;;;;13.15;4.65;;;24.90;73.40;;;-144.05;29.16;56912.56;5072625;28;20029;-82
2023/06/16 06:58:36;;;;;;;13.98;4.75;;;24.70;71.80;;;-144.05;29.50;56942.28;5054570;28;20024;-84
2023/06/16 07:01:02;;;;;;;12.85;4.40;;;24.70;71.40;;;-144.05;29.39;56918.94;5071435;28;20287;-80
2023/06/16 07:03:28;;;;;;;18.08;5.28;;;24.90;71.70;;;-144.05;29.44;56944.41;5071473;28;20421;-81
2023/06/16 07:05:54;;;;;;;14.68;4.50;;;24.70;71.30;;;-144.05;30.01;56906.19;5073448;28;20418;-84
2023/06/16 07:08:20;;;;;;;15.15;5.72;;;24.90;72.80;;;-144.05;29.72;56931.66;5095941;28;20024;-82
2023/06/16 07:10:46;;;;;;;13.52;5.05;;;24.90;72.40;;;-144.05;29.92;56914.69;5057423;28;20033;-84
2023/06/16 07:13:12;;;;;;;17.65;6.20;;;25.30;72.60;;;-144.05;29.23;56952.91;5054796;28;20138;-83
2023/06/16 07:15:38;;;;;;;21.75;5.43;;;25.40;71.10;;;-144.05;29.86;56918.94;5073028;28;20036;-80
2023/06/16 07:18:04;;;;;;;17.50;6.15;;;25.30;71.40;;;-144.05;29.27;56938.03;5058105;28;20035;-81
2023/06/16 07:20:30;;;;;;;10.30;5.18;;;25.40;69.90;;;-144.05;29.39;56946.53;5072804;28;20417;-82
2023/06/16 07:22:56;;;;;;;14.15;5.40;;;25.50;70.90;;;-144.05;29.04;56972.03;5055179;28;20024;-83
2023/06/16 07:25:22;;;;;;;9.98;5.00;;;25.80;69.10;;;-144.05;28.65;56974.16;5072962;28;20032;-83
2023/06/16 07:27:47;;;;;;;16.67;6.20;;;26.00;67.80;;;-144.05;28.00;56967.78;5055721;28;20519;-82
2023/06/16 07:30:13;;;;;;;14.35;4.60;;;26.30;65.40;;;-144.05;28.36;56986.91;5054575;28;20074;-81
2023/06/16 07:32:39;;;;;;;10.20;5.53;;;26.40;67.10;;;-144.05;27.46;56963.53;5057095;28;20051;-82
2023/06/16 07:35:08;;;;;;;13.55;5.00;;;26.60;64.10;;;-144.05;27.90;56976.28;5058713;28;20501;-80
2023/06/16 07:37:34;;;;;;;9.80;4.18;;;26.70;64.40;;;-144.05;27.42;56982.66;5076778;28;20478;-82
2023/06/16 07:40:00;;;;;;;7.25;4.30;;;26.90;63.40;;;-144.05;26.10;56989.00;5076429;28;20115;-81
2023/06/16 07:42:26;;;;;;;12.15;4.40;;;26.90;58.50;;;-144.05;25.79;57006.00;5076531;28;20103;-82
2023/06/16 07:44:52;;;;;;;7.55;3.85;;;27.00;59.10;;;-144.05;26.09;56980.53;5058513;28;20032;-82
2023/06/16 07:47:18;;;;;;;8.05;3.50;;;27.00;59.40;;;-144.05;26.29;57014.50;5076723;28;20127;-79
2023/06/16 07:49:44;;;;;;;5.97;3.70;;;27.20;59.50;;;-144.05;24.23;57023.00;5059075;28;20036;-81
2023/06/16 07:52:11;;;;;;;6.45;3.70;;;27.30;53.00;;;-144.05;23.78;57014.50;5077337;28;20036;-81
2023/06/16 07:54:40;;;;;;;9.55;3.55;;;27.40;51.10;;;-144.05;23.74;56999.63;5076677;28;20482;-84
2023/06/16 07:57:07;;;;;;;10.13;3.83;;;27.20;51.10;;;-144.05;23.93;56993.25;5075976;28;20032;-80
2023/06/16 07:59:33;;;;;;;6.95;3.72;;;27.30;52.00;;;-144.05;23.65;57001.75;5076267;28;20029;-83
2023/06/16 08:02:03;;;;;;;6.75;3.67;;;27.20;51.00;;;-144.05;23.46;57027.25;5058555;28;20063;-82
2023/06/16 08:04:29;;;;;;;8.27;3.55;;;27.30;50.20;;;-144.05;23.41;57008.13;5058090;28;20500;-80
2023/06/16 08:06:57;;;;;;;7.40;3.55;;;27.40;51.20;;;-144.05;23.47;57035.75;5058147;28;20060;-80
2023/06/16 08:09:23;;;;;;;5.22;3.40;;;27.60;50.40;;;-144.05;23.06;57054.88;5058436;28;20029;-82
2023/06/16 08:11:50;;;;;;;8.65;3.33;;;28.00;49.80;;;-144.05;22.92;57052.75;5058068;28;20046;-80
2023/06/16 08:14:16;;;;;;;7.13;3.47;;;28.30;49.30;;;-144.05;22.95;57012.38;5057893;28;20047;-80
2023/06/16 08:16:42;;;;;;;4.55;3.15;;;28.30;48.00;;;-144.05;22.99;57090.97;5058263;28;20132;-82
2023/06/16 08:19:08;;;;;;;8.77;3.70;;;28.40;49.60;;;-144.05;23.08;57067.59;5075657;28;20055;-83
2023/06/16 08:21:35;;;;;;;6.88;3.83;;;28.50;49.10;;;-144.05;22.64;57059.09;5074700;28;20028;-81
2023/06/16 08:24:01;;;;;;;6.82;3.92;;;28.50;48.10;;;-144.05;23.69;57061.22;5058201;28;20052;-81
2023/06/16 08:26:28;;;;;;;7.47;3.28;;;28.40;50.10;;;-144.05;23.34;57054.88;5075685;28;20035;-80
2023/06/16 08:28:54;;;;;;;7.25;4.20;;;28.40;49.10;;;-144.05;23.70;57067.59;5058214;28;20119;-82
2023/06/16 08:31:20;;;;;;;5.55;3.28;;;28.50;50.60;;;-144.05;22.67;57082.47;5057735;28;20107;-83
2023/06/16 08:33:46;;;;;;;6.57;3.28;;;28.50;48.80;;;-144.05;21.88;57090.97;5076202;28;20031;-84
2023/06/16 08:36:12;;;;;;;3.90;2.35;;;28.40;46.00;;;-144.05;22.16;57084.59;5074348;28;20032;-83
2023/06/16 08:38:39;;;;;;;3.55;2.78;;;28.40;46.70;;;-144.05;22.11;57059.09;5057442;28;20174;-82
2023/06/16 08:41:06;;;;;;;4.15;2.85;;;28.30;46.80;;;-144.05;22.43;57056.97;5057385;28;20470;-82
2023/06/16 08:43:38;;;;;;;9.05;2.92;;;28.30;47.00;;;-144.05;21.94;57086.72;5074130;28;20052;-82
2023/06/16 08:46:10;;;;;;;6.90;2.50;;;28.40;45.60;;;-144.05;22.70;57073.97;5057078;28;20024;-83
2023/06/16 08:48:37;;;;;;;3.67;2.83;;;28.70;47.60;;;-144.05;22.41;57101.59;5056933;28;20099;-82
2023/06/16 08:51:05;;;;;;;7.40;3.03;;;28.90;46.50;;;-144.05;22.44;57095.22;5075084;28;20046;-82
2023/06/16 08:53:36;;;;;;;7.03;3.22;;;29.00;47.20;;;-144.05;22.18;57076.09;5058177;28;20115;-82
2023/06/16 08:56:05;;;;;;;2.80;2.38;;;28.70;45.80;;;-144.05;22.40;57073.97;5057765;28;20375;-81
2023/06/16 08:58:37;;;;;;;4.20;2.92;;;28.90;47.00;;;-144.05;23.08;57107.97;5079011;28;20074;-77
2023/06/16 09:01:04;;;;;;;6.30;2.88;;;28.90;48.90;;;-144.05;22.80;57103.72;5060596;28;20135;-80
2023/06/16 09:03:34;;;;;;;5.03;2.60;;;29.00;47.60;;;-144.05;22.29;57101.59;5057133;28;20035;-81
2023/06/16 09:06:02;;;;;;;3.88;2.38;;;29.10;46.60;;;-144.05;22.23;57124.97;5073970;28;20420;-83
2023/06/16 09:08:29;;;;;;;6.78;3.13;;;29.30;46.00;;;-144.05;22.68;57124.97;5074306;28;20024;-79
2023/06/16 09:10:56;;;;;;;5.10;2.72;;;29.40;47.30;;;-144.05;22.05;57101.59;5057335;28;20024;-83
2023/06/16 09:13:24;;;;;;;3.67;2.75;;;29.30;46.10;;;-144.05;22.48;57093.09;5057352;28;20081;-81
2023/06/16 09:15:51;;;;;;;3.30;2.85;;;29.20;46.40;;;-144.05;22.10;57090.97;5075575;28;20146;-83
2023/06/16 09:18:18;;;;;;;8.55;2.47;;;29.20;45.50;;;-144.05;21.39;57103.72;5057173;28;20032;-80
2023/06/16 09:20:50;;;;;;;4.10;2.60;;;29.40;44.10;;;-144.05;21.83;57129.22;5075004;28;20378;-83
2023/06/16 09:23:28;;;;;;;4.20;2.70;;;29.90;44.20;;;-144.05;21.38;57141.94;5056699;28;20028;-81
2023/06/16 09:25:54;;;;;;;3.20;2.90;;;29.60;44.20;;;-144.05;21.55;57116.47;5075248;28;20031;-83
2023/06/16 09:28:37;;;;;;;3.42;2.40;;;29.50;44.30;;;-144.05;22.43;57112.22;5074706;28;20029;-80
2023/06/16 09:31:13;;;;;;;6.32;2.50;;;29.40;46.00;;;-144.05;21.67;57103.72;5057055;28;20398;-81
2023/06/16 09:33:41;;;;;;;6.10;2.72;;;29.10;44.80;;;-144.05;21.33;57105.84;5056587;28;20028;-82
2023/06/16 09:36:11;;;;;;;7.05;2.97;;;29.10;43.10;;;-144.05;21.64;57095.22;5056401;28;20082;-83
2023/06/16 09:38:38;;;;;;;3.55;3.10;;;29.00;44.20;;;-144.05;22.15;57103.72;5056221;28;20021;-82
2023/06/16 09:41:15;;;;;;;7.25;2.80;;;29.20;46.40;;;-144.05;21.96;57112.22;5056627;28;20060;-81
2023/06/16 09:43:43;;;;;;;4.18;2.83;;;29.30;45.70;;;-144.05;22.06;57129.22;5056059;28;20111;-82
2023/06/16 09:46:13;;;;;;;7.80;3.15;;;29.50;45.90;;;-144.05;21.90;57139.81;5059683;28;20473;-81
2023/06/16 09:48:50;;;;;;;4.90;2.78;;;29.20;45.60;;;-144.05;21.81;57135.56;5079122;28;20492;-83
2023/06/16 09:51:25;;;;;;;6.53;2.50;;;29.10;45.30;;;-144.05;21.97;57110.09;5078387;28;20029;-83
2023/06/16 09:53:54;;;;;;;4.43;2.60;;;29.20;45.20;;;-144.05;21.91;57107.97;5078954;28;20494;-85
2023/06/16 09:56:20;;;;;;;3.10;2.58;;;29.20;45.10;;;-144.05;21.80;57078.22;5059692;28;20478;-83
2023/06/16 09:58:47;;;;;;;3.75;2.90;;;29.10;45.80;;;-144.05;22.17;57122.84;5060468;28;20031;-85
2023/06/16 10:01:16;;;;;;;3.78;2.90;;;29.10;45.20;;;-144.05;21.52;57105.84;5061174;28;20123;-85
2023/06/16 10:03:47;;;;;;;3.35;3.00;;;29.20;44.00;;;-144.05;21.99;57105.84;5060999;28;20024;-82
2023/06/16 10:06:19;;;;;;;5.25;2.83;;;29.10;45.20;;;-144.05;21.52;57093.09;5077368;28;20398;-81
2023/06/16 10:08:48;;;;;;;3.35;2.70;;;29.20;44.00;;;-144.05;21.54;57135.56;5079763;28;20024;-83